sensor_id;sensor_type;location;lat;lon;timestamp;temperature;humidity
9949;DHT22;5013;51.840;8.276;2022-11-15T00:01:43;9.10;99.90
9949;DHT22;5013;51.840;8.276;2022-11-15T00:04:09;9.10;99.90
9949;DHT22;5013;51.840;8.276;2022-11-15T00:06:35;9.10;99.90
9949;DHT22;5013;51.840;8.276;2022-11-15T00:09:01;9.10;99.90
9949;DHT22;5013;51.840;8.276;2022-11-15T00:11:27;9.10;90.00
9949;DHT22;5013;51.840;8.276;2022-11-15T00:13:57;9.20;99.90
9949;DHT22;5013;51.840;8.276;2022-11-15T00:16:23;9.20;99.90
9949;DHT22;5013;51.840;8.276;2022-11-15T00:18:49;9.20;99.90
9949;DHT22;5013;51.840;8.276;2022-11-15T00:21:16;9.20;99.90
9949;DHT22;5013;51.840;8.276;2022-11-15T00:23:42;9.20;99.90
9949;DHT22;5013;51.840;8.276;2022-11-15T00:26:11;9.20;99.90
9949;DHT22;5013;51.840;8.276;2022-11-15T00:28:38;9.30;99.90
9949;DHT22;5013;51.840;8.276;2022-11-15T00:31:06;9.30;99.90
9949;DHT22;5013;51.840;8.276;2022-11-15T00:33:33;9.30;99.90
9949;DHT22;5013;51.840;8.276;2022-11-15T00:36:16;9.30;99.90
9949;DHT22;5013;51.840;8.276;2022-11-15T00:38:42;9.40;99.90
9949;DHT22;5013;51.840;8.276;2022-11-15T00:41:08;9.40;99.90
9949;DHT22;5013;51.840;8.276;2022-11-15T00:43:34;9.40;99.90
9949;DHT22;5013;51.840;8.276;2022-11-15T00:46:00;9.40;99.90
9949;DHT22;5013;51.840;8.276;2022-11-15T00:48:27;9.40;99.90
9949;DHT22;5013;51.840;8.276;2022-11-15T00:50:53;9.40;99.90
9949;DHT22;5013;51.840;8.276;2022-11-15T00:53:19;9.50;99.90
9949;DHT22;5013;51.840;8.276;2022-11-15T00:55:44;9.50;99.90
9949;DHT22;5013;51.840;8.276;2022-11-15T00:58:10;9.50;99.90
9949;DHT22;5013;51.840;8.276;2022-11-15T01:00:35;9.50;99.90
9949;DHT22;5013;51.840;8.276;2022-11-15T01:03:01;9.40;99.90
9949;DHT22;5013;51.840;8.276;2022-11-15T01:05:27;9.40;99.90
9949;DHT22;5013;51.840;8.276;2022-11-15T01:07:54;9.40;99.90
9949;DHT22;5013;51.840;8.276;2022-11-15T01:10:21;9.40;1.00
9949;DHT22;5013;51.840;8.276;2022-11-15T01:12:46;9.40;1.00
9949;DHT22;5013;51.840;8.276;2022-11-15T01:15:12;9.40;99.90
9949;DHT22;5013;51.840;8.276;2022-11-15T01:17:38;9.40;1.00
9949;DHT22;5013;51.840;8.276;2022-11-15T01:20:04;9.40;1.00
9949;DHT22;5013;51.840;8.276;2022-11-15T01:22:30;9.40;1.00
9949;DHT22;5013;51.840;8.276;2022-11-15T01:24:55;9.40;1.00
9949;DHT22;5013;51.840;8.276;2022-11-15T01:27:21;9.40;10.10
9949;DHT22;5013;51.840;8.276;2022-11-15T01:29:47;9.40;1.00
9949;DHT22;5013;51.840;8.276;2022-11-15T01:32:13;9.20;99.90
9949;DHT22;5013;51.840;8.276;2022-11-15T01:34:38;9.10;99.90
9949;DHT22;5013;51.840;8.276;2022-11-15T01:37:04;9.20;1.00
9949;DHT22;5013;51.840;8.276;2022-11-15T01:39:30;9.10;99.90
9949;DHT22;5013;51.840;8.276;2022-11-15T01:41:55;9.00;1.00
9949;DHT22;5013;51.840;8.276;2022-11-15T01:46:57;9.00;1.00
9949;DHT22;5013;51.840;8.276;2022-11-15T01:49:24;9.00;99.90
9949;DHT22;5013;51.840;8.276;2022-11-15T01:51:50;9.10;1.00
9949;DHT22;5013;51.840;8.276;2022-11-15T01:54:19;9.00;99.90
9949;DHT22;5013;51.840;8.276;2022-11-15T01:56:55;9.00;1.00
9949;DHT22;5013;51.840;8.276;2022-11-15T01:59:23;9.10;3.80
9949;DHT22;5013;51.840;8.276;2022-11-15T02:01:49;9.10;99.90
9949;DHT22;5013;51.840;8.276;2022-11-15T02:04:16;9.10;1.00
9949;DHT22;5013;51.840;8.276;2022-11-15T02:06:43;9.10;1.00
9949;DHT22;5013;51.840;8.276;2022-11-15T02:09:10;9.10;1.00
9949;DHT22;5013;51.840;8.276;2022-11-15T02:11:36;9.10;1.00
9949;DHT22;5013;51.840;8.276;2022-11-15T02:14:03;9.20;99.90
9949;DHT22;5013;51.840;8.276;2022-11-15T02:25:07;9.30;1.00
9949;DHT22;5013;51.840;8.276;2022-11-15T02:33:40;9.40;99.90
9949;DHT22;5013;51.840;8.276;2022-11-15T02:36:14;9.40;93.40
9949;DHT22;5013;51.840;8.276;2022-11-15T02:44:17;9.40;99.90
9949;DHT22;5013;51.840;8.276;2022-11-15T02:47:03;9.50;99.90
9949;DHT22;5013;51.840;8.276;2022-11-15T02:49:53;9.50;99.90
9949;DHT22;5013;51.840;8.276;2022-11-15T02:52:21;9.50;99.90
9949;DHT22;5013;51.840;8.276;2022-11-15T02:54:57;9.50;99.90
9949;DHT22;5013;51.840;8.276;2022-11-15T03:00:20;9.60;1.00
9949;DHT22;5013;51.840;8.276;2022-11-15T03:06:07;9.70;1.00
9949;DHT22;5013;51.840;8.276;2022-11-15T03:11:14;9.70;1.00
9949;DHT22;5013;51.840;8.276;2022-11-15T03:16:37;9.80;1.00
9949;DHT22;5013;51.840;8.276;2022-11-15T03:21:34;9.80;1.00
9949;DHT22;5013;51.840;8.276;2022-11-15T03:24:03;9.80;1.00
9949;DHT22;5013;51.840;8.276;2022-11-15T03:26:32;9.90;1.00
9949;DHT22;5013;51.840;8.276;2022-11-15T03:29:04;9.90;1.00
9949;DHT22;5013;51.840;8.276;2022-11-15T03:31:34;9.90;1.00
9949;DHT22;5013;51.840;8.276;2022-11-15T03:34:32;10.00;1.00
9949;DHT22;5013;51.840;8.276;2022-11-15T03:37:00;10.00;1.00
9949;DHT22;5013;51.840;8.276;2022-11-15T03:39:27;10.00;1.00
9949;DHT22;5013;51.840;8.276;2022-11-15T03:47:24;10.00;1.00
9949;DHT22;5013;51.840;8.276;2022-11-15T03:49:53;10.00;1.00
9949;DHT22;5013;51.840;8.276;2022-11-15T03:52:21;10.10;1.00
9949;DHT22;5013;51.840;8.276;2022-11-15T03:54:53;10.10;1.00
9949;DHT22;5013;51.840;8.276;2022-11-15T03:57:19;10.10;1.00
9949;DHT22;5013;51.840;8.276;2022-11-15T03:59:45;10.10;1.00
9949;DHT22;5013;51.840;8.276;2022-11-15T04:02:10;10.20;1.00
9949;DHT22;5013;51.840;8.276;2022-11-15T04:04:36;10.10;1.00
9949;DHT22;5013;51.840;8.276;2022-11-15T04:10:23;10.20;1.00
9949;DHT22;5013;51.840;8.276;2022-11-15T04:12:49;10.10;1.00
9949;DHT22;5013;51.840;8.276;2022-11-15T04:15:20;10.10;1.00
9949;DHT22;5013;51.840;8.276;2022-11-15T04:17:49;10.20;1.00
9949;DHT22;5013;51.840;8.276;2022-11-15T04:23:05;10.20;1.00
9949;DHT22;5013;51.840;8.276;2022-11-15T04:25:51;10.10;1.00
9949;DHT22;5013;51.840;8.276;2022-11-15T04:28:18;10.20;1.00
9949;DHT22;5013;51.840;8.276;2022-11-15T04:30:44;10.20;1.00
9949;DHT22;5013;51.840;8.276;2022-11-15T04:33:09;10.20;32.40
9949;DHT22;5013;51.840;8.276;2022-11-15T04:35:35;10.20;99.90
9949;DHT22;5013;51.840;8.276;2022-11-15T04:38:02;10.20;99.90
9949;DHT22;5013;51.840;8.276;2022-11-15T04:40:27;10.30;99.90
9949;DHT22;5013;51.840;8.276;2022-11-15T04:42:53;10.30;99.90
9949;DHT22;5013;51.840;8.276;2022-11-15T04:48:41;10.30;99.90
9949;DHT22;5013;51.840;8.276;2022-11-15T04:51:06;10.30;99.90
9949;DHT22;5013;51.840;8.276;2022-11-15T04:53:32;10.30;99.90
9949;DHT22;5013;51.840;8.276;2022-11-15T04:55:57;10.30;99.90
9949;DHT22;5013;51.840;8.276;2022-11-15T04:58:23;10.40;99.90
9949;DHT22;5013;51.840;8.276;2022-11-15T05:00:48;10.30;99.90
9949;DHT22;5013;51.840;8.276;2022-11-15T05:06:42;10.40;99.90
9949;DHT22;5013;51.840;8.276;2022-11-15T05:09:08;10.40;99.90
9949;DHT22;5013;51.840;8.276;2022-11-15T05:11:37;10.40;99.90
9949;DHT22;5013;51.840;8.276;2022-11-15T05:14:03;10.40;99.90
9949;DHT22;5013;51.840;8.276;2022-11-15T05:16:29;10.40;99.90
9949;DHT22;5013;51.840;8.276;2022-11-15T05:22:20;10.40;99.90
9949;DHT22;5013;51.840;8.276;2022-11-15T05:24:48;10.40;99.90
9949;DHT22;5013;51.840;8.276;2022-11-15T05:27:24;10.40;99.90
9949;DHT22;5013;51.840;8.276;2022-11-15T05:29:49;10.50;99.90
9949;DHT22;5013;51.840;8.276;2022-11-15T05:32:17;10.50;99.90
9949;DHT22;5013;51.840;8.276;2022-11-15T05:34:46;10.50;99.90
9949;DHT22;5013;51.840;8.276;2022-11-15T05:37:17;10.50;99.90
9949;DHT22;5013;51.840;8.276;2022-11-15T05:39:43;10.50;99.90
9949;DHT22;5013;51.840;8.276;2022-11-15T05:42:13;10.50;99.90
9949;DHT22;5013;51.840;8.276;2022-11-15T05:44:41;10.50;99.90
9949;DHT22;5013;51.840;8.276;2022-11-15T05:47:12;10.50;99.90
9949;DHT22;5013;51.840;8.276;2022-11-15T05:49:40;10.60;99.90
9949;DHT22;5013;51.840;8.276;2022-11-15T05:52:10;10.50;99.90
9949;DHT22;5013;51.840;8.276;2022-11-15T05:54:37;10.50;99.90
9949;DHT22;5013;51.840;8.276;2022-11-15T05:57:04;10.60;99.90
9949;DHT22;5013;51.840;8.276;2022-11-15T05:59:31;10.70;99.90
9949;DHT22;5013;51.840;8.276;2022-11-15T06:01:59;10.50;99.90
9949;DHT22;5013;51.840;8.276;2022-11-15T06:04:25;10.50;99.90
9949;DHT22;5013;51.840;8.276;2022-11-15T06:06:55;10.50;99.90
9949;DHT22;5013;51.840;8.276;2022-11-15T06:09:24;10.50;99.90
9949;DHT22;5013;51.840;8.276;2022-11-15T06:12:13;10.50;99.90
9949;DHT22;5013;51.840;8.276;2022-11-15T06:14:40;10.50;99.90
9949;DHT22;5013;51.840;8.276;2022-11-15T06:17:06;10.50;99.90
9949;DHT22;5013;51.840;8.276;2022-11-15T06:19:33;10.50;99.90
9949;DHT22;5013;51.840;8.276;2022-11-15T06:22:00;10.50;99.90
9949;DHT22;5013;51.840;8.276;2022-11-15T06:24:26;10.50;99.90
9949;DHT22;5013;51.840;8.276;2022-11-15T06:27:06;10.50;99.90
9949;DHT22;5013;51.840;8.276;2022-11-15T06:29:54;10.50;99.90
9949;DHT22;5013;51.840;8.276;2022-11-15T06:32:20;10.50;99.90
9949;DHT22;5013;51.840;8.276;2022-11-15T06:34:47;10.60;99.90
9949;DHT22;5013;51.840;8.276;2022-11-15T06:37:15;10.60;99.90
9949;DHT22;5013;51.840;8.276;2022-11-15T06:39:41;10.60;99.90
9949;DHT22;5013;51.840;8.276;2022-11-15T06:42:08;10.60;99.90
9949;DHT22;5013;51.840;8.276;2022-11-15T06:44:34;10.60;99.90
9949;DHT22;5013;51.840;8.276;2022-11-15T06:50:22;10.70;99.90
9949;DHT22;5013;51.840;8.276;2022-11-15T06:52:47;10.70;99.90
9949;DHT22;5013;51.840;8.276;2022-11-15T06:55:13;10.70;99.90
9949;DHT22;5013;51.840;8.276;2022-11-15T06:57:49;10.80;99.90
9949;DHT22;5013;51.840;8.276;2022-11-15T07:00:16;10.80;99.90
9949;DHT22;5013;51.840;8.276;2022-11-15T07:02:42;10.70;99.90
9949;DHT22;5013;51.840;8.276;2022-11-15T07:05:08;10.80;99.90
9949;DHT22;5013;51.840;8.276;2022-11-15T07:07:34;10.80;99.90
9949;DHT22;5013;51.840;8.276;2022-11-15T07:09:59;10.80;99.90
9949;DHT22;5013;51.840;8.276;2022-11-15T07:12:25;10.80;99.90
9949;DHT22;5013;51.840;8.276;2022-11-15T07:14:50;10.80;99.90
9949;DHT22;5013;51.840;8.276;2022-11-15T07:17:16;10.90;99.90
9949;DHT22;5013;51.840;8.276;2022-11-15T07:19:42;11.00;99.90
9949;DHT22;5013;51.840;8.276;2022-11-15T07:22:07;11.00;99.90
9949;DHT22;5013;51.840;8.276;2022-11-15T07:24:33;11.00;99.90
9949;DHT22;5013;51.840;8.276;2022-11-15T07:26:59;11.00;99.90
9949;DHT22;5013;51.840;8.276;2022-11-15T07:29:24;11.10;99.90
9949;DHT22;5013;51.840;8.276;2022-11-15T07:31:50;11.10;99.90
9949;DHT22;5013;51.840;8.276;2022-11-15T07:34:16;11.10;99.90
9949;DHT22;5013;51.840;8.276;2022-11-15T07:36:41;11.10;99.90
9949;DHT22;5013;51.840;8.276;2022-11-15T07:39:07;11.20;99.90
9949;DHT22;5013;51.840;8.276;2022-11-15T07:44:55;11.30;99.90
9949;DHT22;5013;51.840;8.276;2022-11-15T07:47:21;11.30;99.90
9949;DHT22;5013;51.840;8.276;2022-11-15T07:49:47;11.30;99.90
9949;DHT22;5013;51.840;8.276;2022-11-15T07:52:13;11.40;99.90
9949;DHT22;5013;51.840;8.276;2022-11-15T07:54:39;11.50;99.90
9949;DHT22;5013;51.840;8.276;2022-11-15T07:57:05;11.60;91.10
9949;DHT22;5013;51.840;8.276;2022-11-15T07:59:31;11.80;74.60
9949;DHT22;5013;51.840;8.276;2022-11-15T08:01:58;11.80;3.20
9949;DHT22;5013;51.840;8.276;2022-11-15T08:04:24;11.90;1.00
9949;DHT22;5013;51.840;8.276;2022-11-15T08:06:49;12.00;1.00
9949;DHT22;5013;51.840;8.276;2022-11-15T08:09:15;12.10;1.00
9949;DHT22;5013;51.840;8.276;2022-11-15T08:11:41;12.10;1.00
9949;DHT22;5013;51.840;8.276;2022-11-15T08:14:06;12.20;1.00
9949;DHT22;5013;51.840;8.276;2022-11-15T08:16:32;12.20;1.00
9949;DHT22;5013;51.840;8.276;2022-11-15T08:18:58;12.30;1.00
9949;DHT22;5013;51.840;8.276;2022-11-15T08:21:24;12.40;1.00
9949;DHT22;5013;51.840;8.276;2022-11-15T08:23:50;12.50;1.00
9949;DHT22;5013;51.840;8.276;2022-11-15T08:26:15;12.60;1.00
9949;DHT22;5013;51.840;8.276;2022-11-15T08:32:04;12.80;99.90
9949;DHT22;5013;51.840;8.276;2022-11-15T08:34:33;12.90;99.90
9949;DHT22;5013;51.840;8.276;2022-11-15T08:36:59;13.00;1.00
9949;DHT22;5013;51.840;8.276;2022-11-15T08:39:25;13.10;1.00
9949;DHT22;5013;51.840;8.276;2022-11-15T08:41:50;13.30;99.90
9949;DHT22;5013;51.840;8.276;2022-11-15T08:44:17;13.40;1.00
9949;DHT22;5013;51.840;8.276;2022-11-15T08:46:45;13.50;99.90
9949;DHT22;5013;51.840;8.276;2022-11-15T08:49:11;13.60;99.90
9949;DHT22;5013;51.840;8.276;2022-11-15T08:51:38;13.70;1.00
9949;DHT22;5013;51.840;8.276;2022-11-15T08:54:05;13.70;1.00
9949;DHT22;5013;51.840;8.276;2022-11-15T08:56:31;13.80;1.00
9949;DHT22;5013;51.840;8.276;2022-11-15T08:59:00;13.80;99.90
9949;DHT22;5013;51.840;8.276;2022-11-15T09:01:28;13.80;8.70
9949;DHT22;5013;51.840;8.276;2022-11-15T09:07:16;14.00;1.00
9949;DHT22;5013;51.840;8.276;2022-11-15T09:09:43;14.00;99.90
9949;DHT22;5013;51.840;8.276;2022-11-15T09:15:32;14.10;99.90
9949;DHT22;5013;51.840;8.276;2022-11-15T09:18:01;14.20;1.00
9949;DHT22;5013;51.840;8.276;2022-11-15T09:20:35;14.30;99.90
9949;DHT22;5013;51.840;8.276;2022-11-15T09:23:14;14.30;99.90
9949;DHT22;5013;51.840;8.276;2022-11-15T09:25:42;14.30;99.90
9949;DHT22;5013;51.840;8.276;2022-11-15T09:28:18;14.50;99.90
9949;DHT22;5013;51.840;8.276;2022-11-15T09:30:44;14.60;1.00
9949;DHT22;5013;51.840;8.276;2022-11-15T09:33:13;14.70;99.90
9949;DHT22;5013;51.840;8.276;2022-11-15T09:35:49;14.70;99.90
9949;DHT22;5013;51.840;8.276;2022-11-15T09:38:22;14.70;99.90
9949;DHT22;5013;51.840;8.276;2022-11-15T09:49:50;14.70;1.00
9949;DHT22;5013;51.840;8.276;2022-11-15T09:52:18;14.70;1.00
9949;DHT22;5013;51.840;8.276;2022-11-15T09:54:51;14.80;99.90
9949;DHT22;5013;51.840;8.276;2022-11-15T09:57:45;14.80;99.90
9949;DHT22;5013;51.840;8.276;2022-11-15T10:03:38;14.80;99.90
9949;DHT22;5013;51.840;8.276;2022-11-15T10:06:13;14.90;99.90
9949;DHT22;5013;51.840;8.276;2022-11-15T10:11:34;15.20;1.00
9949;DHT22;5013;51.840;8.276;2022-11-15T10:14:09;15.20;1.00
9949;DHT22;5013;51.840;8.276;2022-11-15T10:22:25;15.20;1.00
9949;DHT22;5013;51.840;8.276;2022-11-15T10:25:00;15.20;1.00
9949;DHT22;5013;51.840;8.276;2022-11-15T10:27:32;15.10;1.00
9949;DHT22;5013;51.840;8.276;2022-11-15T10:29:59;15.10;99.90
9949;DHT22;5013;51.840;8.276;2022-11-15T10:32:25;15.00;99.90
9949;DHT22;5013;51.840;8.276;2022-11-15T10:34:51;15.10;1.00
9949;DHT22;5013;51.840;8.276;2022-11-15T10:37:31;15.20;1.00
9949;DHT22;5013;51.840;8.276;2022-11-15T10:40:24;15.30;99.90
9949;DHT22;5013;51.840;8.276;2022-11-15T10:45:42;15.50;99.90
9949;DHT22;5013;51.840;8.276;2022-11-15T10:48:20;15.60;99.90
9949;DHT22;5013;51.840;8.276;2022-11-15T10:50:51;15.50;99.90
9949;DHT22;5013;51.840;8.276;2022-11-15T10:56:18;15.40;99.90
9949;DHT22;5013;51.840;8.276;2022-11-15T10:58:55;15.40;99.90
9949;DHT22;5013;51.840;8.276;2022-11-15T11:01:31;15.40;99.90
9949;DHT22;5013;51.840;8.276;2022-11-15T11:04:13;15.50;99.90
9949;DHT22;5013;51.840;8.276;2022-11-15T11:06:50;15.70;99.90
9949;DHT22;5013;51.840;8.276;2022-11-15T11:09:39;15.70;99.90
9949;DHT22;5013;51.840;8.276;2022-11-15T11:12:10;15.70;1.00
9949;DHT22;5013;51.840;8.276;2022-11-15T11:14:38;15.70;1.00
9949;DHT22;5013;51.840;8.276;2022-11-15T11:17:28;15.70;60.90
9949;DHT22;5013;51.840;8.276;2022-11-15T11:20:07;15.60;1.00
9949;DHT22;5013;51.840;8.276;2022-11-15T11:28:41;15.90;1.00
9949;DHT22;5013;51.840;8.276;2022-11-15T11:49:16;16.30;99.90
9949;DHT22;5013;51.840;8.276;2022-11-15T11:54:24;16.40;99.90
9949;DHT22;5013;51.840;8.276;2022-11-15T11:56:53;16.20;1.00
9949;DHT22;5013;51.840;8.276;2022-11-15T12:00:12;16.10;1.00
9949;DHT22;5013;51.840;8.276;2022-11-15T12:02:18;16.20;1.00
9949;DHT22;5013;51.840;8.276;2022-11-15T12:04:50;16.20;99.90
9949;DHT22;5013;51.840;8.276;2022-11-15T12:07:26;16.30;99.90
9949;DHT22;5013;51.840;8.276;2022-11-15T12:13:24;16.30;99.90
9949;DHT22;5013;51.840;8.276;2022-11-15T12:15:57;16.30;99.90
9949;DHT22;5013;51.840;8.276;2022-11-15T12:18:25;16.20;99.90
9949;DHT22;5013;51.840;8.276;2022-11-15T12:27:25;16.20;99.90
9949;DHT22;5013;51.840;8.276;2022-11-15T12:33:45;16.10;99.90
9949;DHT22;5013;51.840;8.276;2022-11-15T12:41:27;16.10;99.90
9949;DHT22;5013;51.840;8.276;2022-11-15T12:43:54;16.10;99.90
9949;DHT22;5013;51.840;8.276;2022-11-15T12:59:51;16.10;99.90
9949;DHT22;5013;51.840;8.276;2022-11-15T13:04:48;15.90;1.00
9949;DHT22;5013;51.840;8.276;2022-11-15T13:13:04;16.10;99.90
9949;DHT22;5013;51.840;8.276;2022-11-15T13:15:36;16.10;99.90
9949;DHT22;5013;51.840;8.276;2022-11-15T13:18:29;16.00;99.90
9949;DHT22;5013;51.840;8.276;2022-11-15T13:20:55;16.10;99.90
9949;DHT22;5013;51.840;8.276;2022-11-15T13:23:21;16.00;99.90
9949;DHT22;5013;51.840;8.276;2022-11-15T13:28:49;15.80;99.90
9949;DHT22;5013;51.840;8.276;2022-11-15T13:33:48;15.80;99.90
9949;DHT22;5013;51.840;8.276;2022-11-15T13:36:24;15.80;99.90
9949;DHT22;5013;51.840;8.276;2022-11-15T13:39:26;15.80;99.90
9949;DHT22;5013;51.840;8.276;2022-11-15T13:41:52;15.70;99.90
9949;DHT22;5013;51.840;8.276;2022-11-15T13:44:38;15.60;99.90
9949;DHT22;5013;51.840;8.276;2022-11-15T13:47:14;15.50;99.90
9949;DHT22;5013;51.840;8.276;2022-11-15T13:49:40;15.30;99.90
9949;DHT22;5013;51.840;8.276;2022-11-15T13:52:09;15.30;2.70
9949;DHT22;5013;51.840;8.276;2022-11-15T13:57:17;15.20;1.00
9949;DHT22;5013;51.840;8.276;2022-11-15T14:00:06;15.20;17.00
9949;DHT22;5013;51.840;8.276;2022-11-15T14:02:47;15.20;55.20
9949;DHT22;5013;51.840;8.276;2022-11-15T14:05:18;15.00;99.20
9949;DHT22;5013;51.840;8.276;2022-11-15T14:07:59;15.10;99.90
9949;DHT22;5013;51.840;8.276;2022-11-15T14:10:33;15.00;99.90
9949;DHT22;5013;51.840;8.276;2022-11-15T14:12:59;14.90;99.90
9949;DHT22;5013;51.840;8.276;2022-11-15T14:15:36;14.90;99.90
9949;DHT22;5013;51.840;8.276;2022-11-15T14:18:03;15.00;99.90
9949;DHT22;5013;51.840;8.276;2022-11-15T14:20:33;15.00;99.90
9949;DHT22;5013;51.840;8.276;2022-11-15T14:23:25;15.00;99.90
9949;DHT22;5013;51.840;8.276;2022-11-15T14:25:58;15.10;99.90
9949;DHT22;5013;51.840;8.276;2022-11-15T14:30:51;14.90;99.90
9949;DHT22;5013;51.840;8.276;2022-11-15T14:33:38;14.80;99.90
9949;DHT22;5013;51.840;8.276;2022-11-15T14:36:20;14.70;1.00
9949;DHT22;5013;51.840;8.276;2022-11-15T14:38:46;14.50;1.00
9949;DHT22;5013;51.840;8.276;2022-11-15T14:41:21;14.50;1.00
9949;DHT22;5013;51.840;8.276;2022-11-15T14:43:48;14.50;1.00
9949;DHT22;5013;51.840;8.276;2022-11-15T14:46:14;14.30;1.00
9949;DHT22;5013;51.840;8.276;2022-11-15T14:48:39;14.30;1.00
9949;DHT22;5013;51.840;8.276;2022-11-15T14:51:13;14.30;1.00
9949;DHT22;5013;51.840;8.276;2022-11-15T14:53:40;14.20;1.00
9949;DHT22;5013;51.840;8.276;2022-11-15T14:56:06;14.20;1.00
9949;DHT22;5013;51.840;8.276;2022-11-15T14:58:32;14.10;1.00
9949;DHT22;5013;51.840;8.276;2022-11-15T15:00:57;14.20;1.00
9949;DHT22;5013;51.840;8.276;2022-11-15T15:03:23;14.10;1.00
9949;DHT22;5013;51.840;8.276;2022-11-15T15:05:49;14.10;1.00
9949;DHT22;5013;51.840;8.276;2022-11-15T15:08:14;14.10;1.00
9949;DHT22;5013;51.840;8.276;2022-11-15T15:10:45;14.00;1.00
9949;DHT22;5013;51.840;8.276;2022-11-15T15:13:20;14.00;1.00
9949;DHT22;5013;51.840;8.276;2022-11-15T15:15:46;13.90;1.00
9949;DHT22;5013;51.840;8.276;2022-11-15T15:18:12;13.80;1.00
9949;DHT22;5013;51.840;8.276;2022-11-15T15:20:39;13.80;1.00
9949;DHT22;5013;51.840;8.276;2022-11-15T15:23:27;13.70;1.00
9949;DHT22;5013;51.840;8.276;2022-11-15T15:25:56;13.60;1.00
9949;DHT22;5013;51.840;8.276;2022-11-15T15:28:22;13.50;1.00
9949;DHT22;5013;51.840;8.276;2022-11-15T15:30:47;13.50;1.00
9949;DHT22;5013;51.840;8.276;2022-11-15T15:33:14;13.40;46.10
9949;DHT22;5013;51.840;8.276;2022-11-15T15:35:40;13.30;1.00
9949;DHT22;5013;51.840;8.276;2022-11-15T15:38:06;13.40;1.00
9949;DHT22;5013;51.840;8.276;2022-11-15T15:40:32;13.40;1.00
9949;DHT22;5013;51.840;8.276;2022-11-15T15:42:58;13.30;1.00
9949;DHT22;5013;51.840;8.276;2022-11-15T15:45:25;13.30;1.00
9949;DHT22;5013;51.840;8.276;2022-11-15T15:47:51;13.20;43.40
9949;DHT22;5013;51.840;8.276;2022-11-15T15:50:25;13.10;96.50
9949;DHT22;5013;51.840;8.276;2022-11-15T15:52:53;13.10;99.90
9949;DHT22;5013;51.840;8.276;2022-11-15T15:55:19;13.10;99.90
9949;DHT22;5013;51.840;8.276;2022-11-15T15:57:44;13.00;99.90
9949;DHT22;5013;51.840;8.276;2022-11-15T16:00:11;13.00;99.90
9949;DHT22;5013;51.840;8.276;2022-11-15T16:02:37;12.90;99.90
9949;DHT22;5013;51.840;8.276;2022-11-15T16:05:02;12.90;1.00
9949;DHT22;5013;51.840;8.276;2022-11-15T16:07:28;12.90;1.00
9949;DHT22;5013;51.840;8.276;2022-11-15T16:09:55;12.90;1.00
9949;DHT22;5013;51.840;8.276;2022-11-15T16:12:28;12.80;2.50
9949;DHT22;5013;51.840;8.276;2022-11-15T16:14:53;12.80;99.90
9949;DHT22;5013;51.840;8.276;2022-11-15T16:17:22;12.70;99.90
9949;DHT22;5013;51.840;8.276;2022-11-15T16:19:48;12.70;99.90
9949;DHT22;5013;51.840;8.276;2022-11-15T16:22:14;12.60;99.90
9949;DHT22;5013;51.840;8.276;2022-11-15T16:24:39;12.60;1.00
9949;DHT22;5013;51.840;8.276;2022-11-15T16:27:05;12.50;1.00
9949;DHT22;5013;51.840;8.276;2022-11-15T16:29:30;12.40;1.00
9949;DHT22;5013;51.840;8.276;2022-11-15T16:31:56;12.40;1.00
9949;DHT22;5013;51.840;8.276;2022-11-15T16:34:22;12.40;1.00
9949;DHT22;5013;51.840;8.276;2022-11-15T16:36:47;12.40;29.50
9949;DHT22;5013;51.840;8.276;2022-11-15T16:39:13;12.30;94.80
9949;DHT22;5013;51.840;8.276;2022-11-15T16:41:40;12.30;99.90
9949;DHT22;5013;51.840;8.276;2022-11-15T16:44:08;12.30;99.90
9949;DHT22;5013;51.840;8.276;2022-11-15T16:46:34;12.30;99.90
9949;DHT22;5013;51.840;8.276;2022-11-15T16:48:59;12.20;99.90
9949;DHT22;5013;51.840;8.276;2022-11-15T16:51:25;12.20;99.90
9949;DHT22;5013;51.840;8.276;2022-11-15T16:53:51;12.20;99.90
9949;DHT22;5013;51.840;8.276;2022-11-15T16:56:25;12.20;99.90
9949;DHT22;5013;51.840;8.276;2022-11-15T16:58:52;12.20;99.90
9949;DHT22;5013;51.840;8.276;2022-11-15T17:01:30;12.20;99.90
9949;DHT22;5013;51.840;8.276;2022-11-15T17:03:57;12.30;1.00
9949;DHT22;5013;51.840;8.276;2022-11-15T17:06:23;12.30;1.00
9949;DHT22;5013;51.840;8.276;2022-11-15T17:08:50;12.30;1.00
9949;DHT22;5013;51.840;8.276;2022-11-15T17:11:21;12.30;1.00
9949;DHT22;5013;51.840;8.276;2022-11-15T17:13:47;12.30;1.00
9949;DHT22;5013;51.840;8.276;2022-11-15T17:16:15;12.30;1.00
9949;DHT22;5013;51.840;8.276;2022-11-15T17:18:42;12.20;1.00
9949;DHT22;5013;51.840;8.276;2022-11-15T17:21:14;12.30;99.90
9949;DHT22;5013;51.840;8.276;2022-11-15T17:23:41;12.30;99.90
9949;DHT22;5013;51.840;8.276;2022-11-15T17:26:09;12.30;99.90
9949;DHT22;5013;51.840;8.276;2022-11-15T17:28:37;12.30;99.90
9949;DHT22;5013;51.840;8.276;2022-11-15T17:31:06;12.30;99.90
9949;DHT22;5013;51.840;8.276;2022-11-15T17:33:33;12.40;99.90
9949;DHT22;5013;51.840;8.276;2022-11-15T17:36:01;12.40;1.00
9949;DHT22;5013;51.840;8.276;2022-11-15T17:38:27;12.50;99.90
9949;DHT22;5013;51.840;8.276;2022-11-15T17:41:14;12.50;99.90
9949;DHT22;5013;51.840;8.276;2022-11-15T17:43:40;12.50;99.60
9949;DHT22;5013;51.840;8.276;2022-11-15T17:46:17;12.50;99.90
9949;DHT22;5013;51.840;8.276;2022-11-15T17:48:45;12.50;99.90
9949;DHT22;5013;51.840;8.276;2022-11-15T17:51:14;12.50;99.90
9949;DHT22;5013;51.840;8.276;2022-11-15T17:53:42;12.50;99.90
9949;DHT22;5013;51.840;8.276;2022-11-15T17:56:19;12.60;99.90
9949;DHT22;5013;51.840;8.276;2022-11-15T17:58:53;12.60;99.90
9949;DHT22;5013;51.840;8.276;2022-11-15T18:01:24;12.60;99.90
9949;DHT22;5013;51.840;8.276;2022-11-15T18:03:51;12.60;99.90
9949;DHT22;5013;51.840;8.276;2022-11-15T18:06:18;12.60;99.90
9949;DHT22;5013;51.840;8.276;2022-11-15T18:08:46;12.70;99.90
9949;DHT22;5013;51.840;8.276;2022-11-15T18:11:21;12.60;99.90
9949;DHT22;5013;51.840;8.276;2022-11-15T18:13:51;12.60;99.90
9949;DHT22;5013;51.840;8.276;2022-11-15T18:16:20;12.70;99.90
9949;DHT22;5013;51.840;8.276;2022-11-15T18:25:34;12.70;99.90
9949;DHT22;5013;51.840;8.276;2022-11-15T18:28:00;12.70;99.90
9949;DHT22;5013;51.840;8.276;2022-11-15T18:30:26;12.80;99.90
9949;DHT22;5013;51.840;8.276;2022-11-15T18:32:52;12.70;99.90
9949;DHT22;5013;51.840;8.276;2022-11-15T18:35:18;12.70;99.90
9949;DHT22;5013;51.840;8.276;2022-11-15T18:37:44;12.70;99.90
9949;DHT22;5013;51.840;8.276;2022-11-15T18:40:43;12.80;99.90
9949;DHT22;5013;51.840;8.276;2022-11-15T18:43:09;12.80;99.90
9949;DHT22;5013;51.840;8.276;2022-11-15T18:45:35;12.70;99.90
9949;DHT22;5013;51.840;8.276;2022-11-15T18:48:01;12.80;99.90
9949;DHT22;5013;51.840;8.276;2022-11-15T18:50:27;12.80;73.00
9949;DHT22;5013;51.840;8.276;2022-11-15T18:52:53;12.80;29.80
9949;DHT22;5013;51.840;8.276;2022-11-15T18:55:18;12.80;99.90
9949;DHT22;5013;51.840;8.276;2022-11-15T19:07:58;12.80;76.30
9949;DHT22;5013;51.840;8.276;2022-11-15T19:10:24;12.80;99.90
9949;DHT22;5013;51.840;8.276;2022-11-15T19:12:50;12.80;99.90
9949;DHT22;5013;51.840;8.276;2022-11-15T19:15:15;12.80;99.90
9949;DHT22;5013;51.840;8.276;2022-11-15T19:17:41;12.80;99.90
9949;DHT22;5013;51.840;8.276;2022-11-15T19:20:07;12.80;99.90
9949;DHT22;5013;51.840;8.276;2022-11-15T19:22:32;12.80;99.90
9949;DHT22;5013;51.840;8.276;2022-11-15T19:24:58;12.80;99.90
9949;DHT22;5013;51.840;8.276;2022-11-15T19:27:24;12.70;99.90
9949;DHT22;5013;51.840;8.276;2022-11-15T19:29:49;12.70;99.90
9949;DHT22;5013;51.840;8.276;2022-11-15T19:32:15;12.80;99.90
9949;DHT22;5013;51.840;8.276;2022-11-15T19:34:40;12.90;99.90
9949;DHT22;5013;51.840;8.276;2022-11-15T19:37:10;12.70;99.90
9949;DHT22;5013;51.840;8.276;2022-11-15T19:39:35;12.80;1.00